Time;durP1;ratioP1;P1;durP2;ratioP2;P2;SDS_P1;SDS_P2;PMS_P1;PMS_P2;Temp;Humidity;BMP_temperature;BMP_pressure;BME280_temperature;BME280_humidity;BME280_pressure;Samples;Min_cycle;Max_cycle;Signal;HPM_P1;HPM_P2
2024/01/13 00:01:50;;;;;;;77.10;35.33;;;2.00;99.90;;;;;;5072149;28;20181;-71
2024/01/13 00:04:15;;;;;;;83.10;34.77;;;2.00;99.90;;;;;;5071800;28;20174;-71
2024/01/13 00:06:41;;;;;;;88.17;36.30;;;2.00;99.90;;;;;;5072231;28;20214;-72
2024/01/13 00:09:07;;;;;;;86.17;35.23;;;2.00;99.90;;;;;;5084066;28;20715;-72
2024/01/13 00:11:33;;;;;;;85.60;35.67;;;2.00;99.90;;;;;;5092070;28;20544;-72
2024/01/13 00:13:59;;;;;;;85.13;33.93;;;2.10;99.90;;;;;;5085145;28;20174;-71
2024/01/13 00:16:24;;;;;;;76.90;31.83;;;2.10;99.90;;;;;;5073137;28;20201;-72
2024/01/13 00:18:50;;;;;;;86.67;34.90;;;2.10;99.90;;;;;;5076780;28;20182;-71
2024/01/13 00:21:15;;;;;;;73.10;35.37;;;2.20;99.90;;;;;;5073064;28;20633;-71
2024/01/13 00:23:41;;;;;;;77.13;32.20;;;2.10;99.90;;;;;;5071682;28;20228;-72
2024/01/13 00:26:07;;;;;;;83.33;33.50;;;2.00;99.90;;;;;;5084003;28;20216;-72
2024/01/13 00:28:32;;;;;;;77.73;33.13;;;2.10;99.90;;;;;;5092145;28;20227;-72
2024/01/13 00:30:58;;;;;;;78.17;32.80;;;2.10;99.90;;;;;;5091763;28;20199;-72
2024/01/13 00:33:23;;;;;;;78.57;34.27;;;2.10;99.90;;;;;;5091726;28;20280;-72
2024/01/13 00:35:50;;;;;;;80.43;32.87;;;2.20;99.90;;;;;;5091491;28;20189;-72
2024/01/13 00:38:15;;;;;;;80.10;35.97;;;2.20;99.90;;;;;;5091300;28;20166;-72
2024/01/13 00:40:41;;;;;;;86.00;33.70;;;2.10;99.90;;;;;;5081864;28;20262;-72
2024/01/13 00:43:06;;;;;;;80.07;33.17;;;2.30;99.90;;;;;;5072398;28;20189;-71
2024/01/13 00:45:34;;;;;;;72.43;33.27;;;2.10;99.90;;;;;;5091312;28;20623;-71
2024/01/13 00:48:00;;;;;;;79.17;33.27;;;2.10;99.90;;;;;;5091431;28;20602;-71
2024/01/13 00:50:26;;;;;;;87.00;32.37;;;2.20;99.90;;;;;;5091210;28;20257;-71
2024/01/13 00:52:51;;;;;;;74.83;33.13;;;2.10;99.90;;;;;;5089663;28;20170;-72
2024/01/13 00:55:17;;;;;;;74.53;33.03;;;2.20;99.90;;;;;;5071026;28;20207;-73
2024/01/13 00:57:43;;;;;;;84.07;33.60;;;2.10;99.90;;;;;;5071215;28;20169;-72
2024/01/13 01:00:09;;;;;;;75.87;32.50;;;2.10;99.90;;;;;;5071141;28;20167;-72
2024/01/13 01:02:34;;;;;;;68.10;31.40;;;2.20;99.90;;;;;;5071465;28;20190;-72
2024/01/13 01:05:00;;;;;;;78.27;31.03;;;2.20;99.90;;;;;;5070993;28;20210;-72
2024/01/13 01:07:26;;;;;;;76.47;32.40;;;2.20;99.90;;;;;;5073090;28;20680;-71
2024/01/13 01:09:51;;;;;;;78.63;33.30;;;2.10;99.90;;;;;;5095346;28;20193;-71
2024/01/13 01:12:17;;;;;;;72.27;31.33;;;2.10;99.90;;;;;;5095452;28;20295;-71
2024/01/13 01:14:43;;;;;;;91.33;34.20;;;2.40;99.90;;;;;;5095260;28;20170;-71
2024/01/13 01:17:08;;;;;;;73.90;32.07;;;2.30;99.90;;;;;;5098489;28;20636;-71
2024/01/13 01:19:34;;;;;;;76.27;32.63;;;2.20;99.90;;;;;;5099344;28;20241;-72
2024/01/13 01:21:59;;;;;;;73.47;31.53;;;2.20;99.90;;;;;;5086635;28;20182;-72
2024/01/13 01:24:25;;;;;;;81.63;31.87;;;2.10;99.90;;;;;;5078336;28;20174;-72
2024/01/13 01:26:50;;;;;;;74.60;33.37;;;2.10;99.90;;;;;;5078404;28;20289;-72
2024/01/13 01:29:16;;;;;;;80.53;33.60;;;2.20;99.90;;;;;;5078091;28;20174;-70
2024/01/13 01:31:42;;;;;;;72.27;30.93;;;2.20;99.90;;;;;;5075698;28;20245;-71
2024/01/13 01:34:07;;;;;;;80.80;32.83;;;2.10;99.90;;;;;;5075044;28;20167;-70
2024/01/13 01:36:33;;;;;;;75.70;33.13;;;2.10;99.90;;;;;;5084596;28;20631;-71
2024/01/13 01:38:58;;;;;;;72.80;32.47;;;2.20;99.90;;;;;;5095307;28;20256;-71
2024/01/13 01:41:25;;;;;;;69.77;31.20;;;2.30;99.90;;;;;;5097735;28;20177;-71
2024/01/13 01:43:51;;;;;;;74.53;30.97;;;2.20;99.90;;;;;;5095709;28;20207;-71
2024/01/13 01:46:19;;;;;;;64.70;30.13;;;2.30;99.90;;;;;;5094849;28;20659;-71
2024/01/13 01:48:45;;;;;;;65.27;29.40;;;2.30;99.90;;;;;;5091956;28;20182;-71
2024/01/13 01:51:15;;;;;;;69.03;30.87;;;2.20;99.90;;;;;;5077913;28;20281;-71
2024/01/13 01:53:42;;;;;;;69.03;29.47;;;2.30;99.90;;;;;;5077277;28;20173;-70
2024/01/13 01:56:29;;;;;;;69.13;30.13;;;2.20;99.90;;;;;;5077676;28;20195;-70
2024/01/13 01:58:55;;;;;;;64.07;29.33;;;2.30;99.90;;;;;;5077739;28;20201;-70
2024/01/13 02:01:23;;;;;;;63.93;29.17;;;2.30;99.90;;;;;;5077584;28;20174;-72
2024/01/13 02:03:49;;;;;;;57.87;27.93;;;2.40;99.90;;;;;;5064232;28;20174;-72
2024/01/13 02:06:15;;;;;;;62.63;28.03;;;2.40;99.90;;;;;;5096321;28;20201;-72
2024/01/13 02:08:41;;;;;;;55.03;28.43;;;2.40;99.90;;;;;;5097339;28;20165;-72
2024/01/13 02:11:08;;;;;;;63.63;26.53;;;2.40;99.90;;;;;;5094250;28;20280;-72
2024/01/13 02:13:34;;;;;;;52.67;25.83;;;2.40;99.90;;;;;;5076797;28;20162;-71
2024/01/13 02:15:59;;;;;;;68.23;27.47;;;2.40;99.90;;;;;;5077264;28;20224;-70
2024/01/13 02:18:25;;;;;;;57.40;26.67;;;2.40;99.90;;;;;;5091489;28;20178;-71
2024/01/13 02:20:50;;;;;;;57.83;28.57;;;2.40;99.90;;;;;;5094534;28;20675;-71
2024/01/13 02:23:16;;;;;;;58.00;27.53;;;2.30;99.90;;;;;;5094543;28;20290;-71
2024/01/13 02:25:42;;;;;;;62.00;26.83;;;2.40;99.90;;;;;;5093925;28;20213;-71
2024/01/13 02:28:07;;;;;;;61.27;27.70;;;2.40;99.90;;;;;;5094151;28;20714;-72
2024/01/13 02:30:33;;;;;;;61.33;28.23;;;2.50;99.90;;;;;;5094181;28;20205;-71
2024/01/13 02:32:58;;;;;;;71.57;28.87;;;2.40;99.90;;;;;;5078224;28;20265;-71
2024/01/13 02:35:24;;;;;;;58.10;27.87;;;2.30;99.90;;;;;;5073412;28;20213;-71
2024/01/13 02:37:49;;;;;;;64.00;28.63;;;2.30;99.90;;;;;;5073620;28;20204;-71
2024/01/13 02:40:15;;;;;;;63.77;28.43;;;2.40;99.90;;;;;;5073741;28;20174;-71
2024/01/13 02:42:40;;;;;;;61.83;28.03;;;2.30;99.90;;;;;;5075019;28;20178;-71
2024/01/13 02:45:06;;;;;;;60.30;28.47;;;2.40;99.90;;;;;;5093683;28;20648;-71
2024/01/13 02:47:47;;;;;;;63.73;28.43;;;2.40;99.90;;;;;;5093386;28;20209;-71
2024/01/13 02:50:14;;;;;;;57.10;26.27;;;2.40;99.60;;;;;;5081925;28;20797;-71
2024/01/13 02:52:40;;;;;;;60.93;29.10;;;2.40;99.90;;;;;;5073264;28;20175;-71
2024/01/13 02:55:06;;;;;;;56.27;27.43;;;2.50;99.90;;;;;;5073402;28;20621;-72
2024/01/13 02:57:32;;;;;;;49.20;27.10;;;2.30;88.50;;;;;;5074938;28;20170;-71
2024/01/13 02:59:58;;;;;;;55.90;28.53;;;2.40;87.90;;;;;;5077254;28;20170;-71
2024/01/13 03:02:23;;;;;;;54.57;27.27;;;2.30;76.80;;;;;;5077260;28;20582;-71
2024/01/13 03:04:49;;;;;;;60.30;28.53;;;2.40;75.70;;;;;;5087768;28;20181;-71
2024/01/13 03:07:14;;;;;;;55.93;26.57;;;2.50;64.20;;;;;;5096839;28;20208;-70
2024/01/13 03:09:40;;;;;;;59.27;27.80;;;2.50;55.50;;;;;;5096435;28;20265;-70
2024/01/13 03:12:06;;;;;;;52.93;26.53;;;2.50;45.00;;;;;;5094874;28;20177;-71
2024/01/13 03:14:32;;;;;;;56.83;26.50;;;2.50;30.40;;;;;;5095637;28;20180;-70
2024/01/13 03:16:57;;;;;;;58.53;27.80;;;2.50;19.90;;;;;;5096055;28;20189;-71
2024/01/13 03:19:23;;;;;;;62.40;27.47;;;2.60;13.60;;;;;;5095232;28;20641;-71
2024/01/13 03:21:48;;;;;;;64.30;27.17;;;2.50;10.50;;;;;;5077127;28;20177;-71
2024/01/13 03:24:14;;;;;;;53.50;26.07;;;2.60;1.00;;;;;;5095150;28;20243;-70
2024/01/13 03:26:39;;;;;;;55.57;28.40;;;2.40;1.00;;;;;;5082846;28;20297;-70
2024/01/13 03:29:05;;;;;;;50.67;27.70;;;2.40;1.00;;;;;;5075394;28;20166;-70
2024/01/13 03:31:31;;;;;;;56.33;26.67;;;2.50;1.00;;;;;;5074954;28;20202;-71
2024/01/13 03:33:56;;;;;;;54.87;27.20;;;2.40;1.00;;;;;;5075589;28;20174;-71
2024/01/13 03:36:22;;;;;;;55.23;25.03;;;2.40;1.00;;;;;;5075538;28;20212;-71
2024/01/13 03:38:48;;;;;;;53.40;25.80;;;2.50;1.00;;;;;;5075556;28;20181;-71
2024/01/13 03:41:15;;;;;;;59.23;24.70;;;2.40;1.00;;;;;;5086861;28;20615;-70
2024/01/13 03:43:41;;;;;;;54.53;26.43;;;2.40;1.00;;;;;;5095503;28;20319;-71
2024/01/13 03:46:06;;;;;;;48.03;25.27;;;2.40;1.00;;;;;;5096455;28;20246;-70
2024/01/13 03:48:32;;;;;;;55.27;26.77;;;2.50;1.00;;;;;;5095936;28;20179;-71
2024/01/13 03:50:59;;;;;;;46.40;24.17;;;2.40;1.00;;;;;;5095048;28;20675;-71
2024/01/13 03:53:25;;;;;;;46.03;24.90;;;2.30;1.00;;;;;;5091638;28;20178;-70
2024/01/13 03:55:50;;;;;;;51.20;25.77;;;2.30;1.00;;;;;;5075749;28;20186;-70
2024/01/13 03:58:16;;;;;;;50.83;26.33;;;2.40;1.00;;;;;;5075119;28;20174;-71
2024/01/13 04:00:42;;;;;;;45.27;24.10;;;2.40;1.00;;;;;;5076206;28;20184;-71
2024/01/13 04:03:07;;;;;;;52.17;24.00;;;2.40;1.00;;;;;;5076050;28;20649;-70
2024/01/13 04:05:34;;;;;;;43.30;23.03;;;2.50;1.00;;;;;;5090463;28;20207;-70
2024/01/13 04:08:00;;;;;;;52.30;26.07;;;2.50;1.00;;;;;;5082163;28;20737;-71
2024/01/13 04:10:25;;;;;;;55.40;25.47;;;2.40;1.00;;;;;;5075253;28;20240;-70
2024/01/13 04:12:51;;;;;;;43.63;24.27;;;2.40;1.00;;;;;;5076602;28;20505;-70
2024/01/13 04:15:16;;;;;;;50.50;24.20;;;2.40;1.00;;;;;;5075734;28;20189;-71
2024/01/13 04:17:42;;;;;;;39.00;23.13;;;2.40;1.00;;;;;;5074874;28;20178;-71
2024/01/13 04:20:08;;;;;;;48.30;24.17;;;2.50;1.00;;;;;;5074507;28;20170;-71
2024/01/13 04:22:34;;;;;;;40.37;22.43;;;2.40;1.00;;;;;;5088772;28;20177;-70
2024/01/13 04:24:59;;;;;;;39.97;23.13;;;2.50;1.00;;;;;;5096149;28;20242;-70
2024/01/13 04:27:25;;;;;;;36.37;19.57;;;2.60;1.00;;;;;;5096434;28;20169;-71
2024/01/13 04:29:50;;;;;;;44.17;21.90;;;2.40;1.00;;;;;;5095121;28;20197;-71
2024/01/13 04:32:16;;;;;;;36.43;20.53;;;2.60;1.00;;;;;;5095040;28;20169;-70
2024/01/13 04:34:41;;;;;;;37.97;21.23;;;2.50;1.00;;;;;;5074708;28;20303;-70
2024/01/13 04:37:07;;;;;;;38.73;21.40;;;2.50;1.00;;;;;;5073018;28;20178;-71
2024/01/13 04:39:33;;;;;;;38.83;21.80;;;2.50;1.00;;;;;;5071364;28;20188;-71
2024/01/13 04:41:58;;;;;;;40.57;22.40;;;2.40;1.00;;;;;;5071192;28;20174;-71
2024/01/13 04:44:24;;;;;;;46.03;23.63;;;2.60;1.00;;;;;;5071320;28;20166;-71
2024/01/13 04:46:50;;;;;;;43.07;22.90;;;2.50;1.00;;;;;;5071407;28;20300;-71
2024/01/13 04:49:15;;;;;;;39.57;24.00;;;2.60;1.00;;;;;;5089560;28;20174;-71
2024/01/13 04:51:41;;;;;;;39.57;23.17;;;2.40;1.00;;;;;;5091437;28;20181;-71
2024/01/13 04:54:07;;;;;;;41.90;21.23;;;2.40;1.00;;;;;;5091545;28;20169;-71
2024/01/13 04:56:33;;;;;;;43.43;23.63;;;2.60;1.00;;;;;;5091456;28;20185;-71
2024/01/13 04:58:58;;;;;;;44.63;23.00;;;2.40;1.00;;;;;;5091922;28;20223;-73
2024/01/13 05:01:24;;;;;;;43.77;22.57;;;2.50;1.00;;;;;;5091538;28;20181;-71
2024/01/13 05:03:50;;;;;;;35.67;21.57;;;2.60;1.00;;;;;;5077322;28;20674;-71
2024/01/13 05:06:15;;;;;;;41.33;22.43;;;2.60;1.00;;;;;;5091558;28;20272;-72
2024/01/13 05:08:42;;;;;;;44.63;22.07;;;2.60;1.00;;;;;;5091468;28;20243;-71
2024/01/13 05:11:07;;;;;;;41.27;23.33;;;2.60;1.00;;;;;;5091704;28;20670;-71
2024/01/13 05:13:33;;;;;;;43.17;23.90;;;2.50;1.00;;;;;;5091125;28;20223;-71
2024/01/13 05:15:59;;;;;;;42.20;24.40;;;2.50;1.00;;;;;;5082303;28;20190;-71
2024/01/13 05:18:26;;;;;;;34.37;22.17;;;2.50;1.00;;;;;;5071014;28;20531;-71
2024/01/13 05:20:52;;;;;;;43.47;22.67;;;2.60;1.00;;;;;;5071652;28;20220;-71
2024/01/13 05:23:17;;;;;;;39.93;23.17;;;2.50;1.00;;;;;;5071570;28;20174;-72
2024/01/13 05:25:43;;;;;;;36.30;21.43;;;2.70;1.00;;;;;;5071850;28;20278;-71
2024/01/13 05:28:09;;;;;;;48.93;23.30;;;2.70;1.00;;;;;;5072640;28;20637;-71
2024/01/13 05:30:35;;;;;;;41.13;23.20;;;2.60;1.00;;;;;;5080267;28;20200;-71
2024/01/13 05:33:02;;;;;;;44.17;22.60;;;2.60;1.00;;;;;;5091554;28;20176;-71
2024/01/13 05:35:27;;;;;;;37.40;21.83;;;2.60;1.00;;;;;;5072814;28;20185;-71
2024/01/13 05:37:53;;;;;;;41.73;22.37;;;2.80;1.00;;;;;;5091220;28;20529;-72
2024/01/13 05:40:22;;;;;;;40.00;22.67;;;2.60;1.00;;;;;;5091182;28;20295;-71
2024/01/13 05:42:47;;;;;;;39.00;22.53;;;2.70;1.00;;;;;;5090757;28;20218;-72
2024/01/13 05:45:13;;;;;;;38.90;21.17;;;2.70;1.00;;;;;;5071069;28;20198;-71
2024/01/13 05:47:38;;;;;;;36.17;21.17;;;2.70;99.90;;;;;;5053925;28;20269;-71
2024/01/13 05:50:05;;;;;;;36.17;21.43;;;2.80;99.90;;;;;;5071958;28;20292;-71
2024/01/13 05:52:30;;;;;;;33.20;20.97;;;2.80;99.90;;;;;;5071339;28;20253;-72
2024/01/13 05:54:56;;;;;;;32.90;20.10;;;2.80;99.90;;;;;;5074325;28;20252;-71
2024/01/13 05:57:22;;;;;;;37.53;20.90;;;2.90;99.90;;;;;;5079899;28;20184;-71
2024/01/13 05:59:48;;;;;;;32.80;19.60;;;2.80;1.00;;;;;;5094619;28;20496;-72
2024/01/13 06:02:14;;;;;;;31.80;19.60;;;2.80;99.90;;;;;;5094690;28;20170;-71
2024/01/13 06:04:40;;;;;;;35.90;20.13;;;2.80;1.00;;;;;;5094719;28;20576;-71
2024/01/13 06:07:05;;;;;;;32.07;19.33;;;2.90;1.00;;;;;;5094633;28;20169;-72
2024/01/13 06:09:32;;;;;;;33.10;19.73;;;2.90;99.90;;;;;;5094224;28;20265;-71
2024/01/13 06:11:57;;;;;;;27.97;20.07;;;2.90;99.90;;;;;;5083395;28;20791;-71
2024/01/13 06:14:23;;;;;;;32.33;20.03;;;2.90;99.90;;;;;;5074089;28;20253;-71
2024/01/13 06:16:49;;;;;;;33.87;18.63;;;2.80;99.90;;;;;;5074277;28;20319;-71
2024/01/13 06:19:14;;;;;;;33.80;18.63;;;2.90;99.90;;;;;;5074148;28;20581;-72
2024/01/13 06:21:43;;;;;;;28.37;18.27;;;2.90;1.00;;;;;;5055996;28;20347;-72
2024/01/13 06:24:11;;;;;;;25.97;18.70;;;2.80;1.00;;;;;;5091484;28;20730;-72
2024/01/13 06:26:41;;;;;;;30.60;18.57;;;2.80;1.00;;;;;;5094021;28;20281;-72
2024/01/13 06:29:07;;;;;;;29.37;18.63;;;2.80;1.00;;;;;;5094002;28;20700;-72
2024/01/13 06:31:33;;;;;;;28.30;18.93;;;2.70;99.90;;;;;;5093908;28;20284;-71
2024/01/13 06:33:59;;;;;;;27.47;19.17;;;2.80;99.90;;;;;;5094003;28;20256;-72
2024/01/13 06:36:25;;;;;;;28.83;20.07;;;2.80;99.90;;;;;;5094058;28;20188;-72
2024/01/13 06:38:50;;;;;;;34.93;19.23;;;2.90;99.90;;;;;;5092239;28;21474;-72
2024/01/13 06:41:16;;;;;;;30.87;18.50;;;2.90;99.90;;;;;;5073745;28;20253;-72
2024/01/13 06:43:42;;;;;;;29.07;18.57;;;2.80;99.90;;;;;;5055408;28;20263;-72
2024/01/13 06:46:08;;;;;;;26.70;18.83;;;2.90;1.00;;;;;;5073769;28;20202;-72
2024/01/13 06:48:33;;;;;;;30.17;19.60;;;2.70;99.90;;;;;;5074125;28;20218;-71
2024/01/13 06:50:59;;;;;;;28.37;18.77;;;2.90;1.00;;;;;;5056012;28;20205;-71
2024/01/13 06:53:25;;;;;;;27.83;18.77;;;2.70;99.90;;;;;;5074392;28;20174;-72
2024/01/13 06:55:51;;;;;;;30.33;19.53;;;2.80;99.90;;;;;;5074030;28;20194;-71
2024/01/13 06:58:17;;;;;;;29.37;19.27;;;2.90;99.90;;;;;;5074061;28;20196;-72
2024/01/13 07:00:43;;;;;;;26.07;18.73;;;2.90;99.90;;;;;;5074530;28;20186;-71
2024/01/13 07:03:08;;;;;;;28.93;18.90;;;2.90;99.90;;;;;;5074592;28;20174;-71
2024/01/13 07:05:34;;;;;;;28.90;18.63;;;2.70;99.90;;;;;;5055292;28;20293;-71
2024/01/13 07:08:00;;;;;;;26.53;18.63;;;2.90;99.90;;;;;;5086351;28;20192;-71
2024/01/13 07:10:29;;;;;;;29.80;20.07;;;2.70;1.00;;;;;;5096940;28;20695;-71
2024/01/13 07:12:55;;;;;;;29.17;20.10;;;2.70;1.00;;;;;;5093436;28;20311;-71
2024/01/13 07:15:21;;;;;;;25.53;19.07;;;2.80;1.00;;;;;;5078033;28;20331;-72
2024/01/13 07:17:47;;;;;;;27.63;20.57;;;2.70;1.00;;;;;;5072875;28;20704;-73
2024/01/13 07:20:13;;;;;;;31.07;20.60;;;2.90;1.00;;;;;;5073102;28;20217;-72
2024/01/13 07:22:38;;;;;;;30.23;20.07;;;2.80;1.00;;;;;;5073228;28;20260;-73
2024/01/13 07:25:04;;;;;;;36.50;23.03;;;2.90;1.00;;;;;;5073832;28;20197;-74
2024/01/13 07:27:31;;;;;;;31.13;21.23;;;2.90;1.00;;;;;;5074006;28;20181;-75
2024/01/13 07:29:59;;;;;;;34.87;21.80;;;2.90;99.90;;;;;;5073992;28;20200;-74
2024/01/13 07:32:25;;;;;;;29.50;21.63;;;2.90;99.90;;;;;;5073865;28;20182;-75
2024/01/13 07:34:50;;;;;;;28.47;21.23;;;3.00;99.90;;;;;;5077264;28;20192;-75
2024/01/13 07:37:16;;;;;;;30.30;21.37;;;2.90;99.90;;;;;;5095574;28;20169;-75
2024/01/13 07:39:44;;;;;;;30.77;20.37;;;2.90;99.90;;;;;;5093093;28;20177;-74
2024/01/13 07:42:09;;;;;;;28.60;20.83;;;2.80;99.90;;;;;;5095666;28;20173;-72
2024/01/13 07:44:35;;;;;;;30.53;20.97;;;2.90;99.90;;;;;;5095235;28;20176;-74
2024/01/13 07:47:03;;;;;;;31.67;21.03;;;2.90;32.70;;;;;;5093692;28;20224;-75
2024/01/13 07:49:30;;;;;;;33.33;21.53;;;3.10;99.90;;;;;;5091815;28;20288;-74
2024/01/13 07:51:56;;;;;;;30.23;20.00;;;3.00;28.90;;;;;;5076258;28;20174;-75
2024/01/13 07:54:22;;;;;;;32.97;22.80;;;3.00;1.00;;;;;;5075282;28;20219;-74
2024/01/13 07:56:49;;;;;;;35.40;21.93;;;2.90;1.00;;;;;;5073911;28;20198;-74
2024/01/13 07:59:16;;;;;;;39.47;23.30;;;3.00;1.00;;;;;;5075279;28;20172;-75
2024/01/13 08:01:42;;;;;;;33.83;22.10;;;3.00;1.00;;;;;;5077817;28;20684;-74
2024/01/13 08:04:08;;;;;;;32.30;21.80;;;3.00;1.00;;;;;;5085799;28;20176;-72
2024/01/13 08:06:34;;;;;;;33.87;23.00;;;3.10;1.00;;;;;;5073597;28;20592;-71
2024/01/13 08:09:00;;;;;;;31.77;23.40;;;3.10;1.00;;;;;;5071531;28;20709;-73
2024/01/13 08:11:25;;;;;;;35.43;22.33;;;3.10;1.00;;;;;;5071899;28;20284;-72
2024/01/13 08:13:51;;;;;;;38.70;25.93;;;3.00;1.00;;;;;;5088294;28;20239;-72
2024/01/13 08:16:17;;;;;;;36.63;22.73;;;3.00;18.50;;;;;;5091122;28;20242;-72
2024/01/13 08:18:42;;;;;;;28.43;21.33;;;3.10;1.00;;;;;;5075191;28;20630;-75
2024/01/13 08:21:08;;;;;;;33.20;20.90;;;3.10;1.00;;;;;;5071647;28;20526;-73
2024/01/13 08:23:34;;;;;;;27.80;20.77;;;3.20;1.00;;;;;;5071725;28;20182;-70
2024/01/13 08:26:01;;;;;;;32.30;21.70;;;3.20;1.00;;;;;;5071335;28;20217;-72
2024/01/13 08:28:26;;;;;;;34.17;22.00;;;3.20;1.00;;;;;;5071996;28;20546;-71
2024/01/13 08:30:52;;;;;;;32.53;21.50;;;3.20;99.90;;;;;;5075248;28;20231;-71
2024/01/13 08:33:17;;;;;;;31.80;21.00;;;3.30;99.90;;;;;;5077028;28;20170;-71
2024/01/13 08:35:43;;;;;;;34.43;21.40;;;3.20;99.90;;;;;;5071122;28;20310;-73
2024/01/13 08:38:09;;;;;;;33.33;21.50;;;3.20;99.90;;;;;;5071051;28;20180;-71
2024/01/13 08:40:35;;;;;;;30.87;20.90;;;3.30;49.60;;;;;;5071756;28;20170;-71
2024/01/13 08:43:02;;;;;;;32.33;19.57;;;3.20;59.30;;;;;;5071324;28;20182;-71
2024/01/13 08:45:29;;;;;;;29.43;19.67;;;3.30;59.90;;;;;;5075727;28;20201;-72
2024/01/13 08:47:58;;;;;;;29.17;19.13;;;3.30;1.00;;;;;;5091507;28;20173;-72
2024/01/13 08:50:24;;;;;;;27.00;18.60;;;3.30;1.00;;;;;;5091881;28;20207;-72
2024/01/13 08:52:54;;;;;;;33.37;19.43;;;3.30;1.00;;;;;;5091768;28;20455;-72
2024/01/13 08:55:19;;;;;;;29.03;19.70;;;3.30;1.00;;;;;;5091648;28;20185;-71
2024/01/13 08:57:46;;;;;;;25.90;19.13;;;3.40;1.00;;;;;;5089943;28;20173;-72
2024/01/13 09:00:12;;;;;;;29.17;19.53;;;3.30;1.00;;;;;;5091831;28;20201;-72
2024/01/13 09:02:39;;;;;;;22.50;17.17;;;3.40;1.00;;;;;;5077963;28;20241;-72
2024/01/13 09:05:05;;;;;;;19.87;16.57;;;3.40;1.00;;;;;;5071311;28;20201;-71
2024/01/13 09:07:32;;;;;;;31.73;19.70;;;3.50;1.00;;;;;;5071239;28;20173;-72
2024/01/13 09:09:57;;;;;;;24.67;17.20;;;3.40;1.00;;;;;;5071272;28;20241;-72
2024/01/13 09:12:23;;;;;;;24.87;16.90;;;3.30;1.00;;;;;;5071424;28;20209;-72
2024/01/13 09:14:48;;;;;;;24.07;17.80;;;3.40;1.00;;;;;;5071271;28;20178;-72
2024/01/13 09:17:14;;;;;;;24.10;17.00;;;3.40;1.00;;;;;;5071247;28;20576;-71
2024/01/13 09:19:40;;;;;;;17.53;15.57;;;3.50;1.00;;;;;;5079471;28;20174;-71
2024/01/13 09:22:05;;;;;;;19.73;14.23;;;3.40;1.00;;;;;;5060892;28;20185;-75
2024/01/13 09:24:31;;;;;;;20.70;14.97;;;3.40;1.00;;;;;;5077639;28;20178;-73
2024/01/13 09:26:56;;;;;;;22.03;14.47;;;3.60;1.00;;;;;;5078280;28;20214;-73
2024/01/13 09:29:22;;;;;;;15.57;13.10;;;3.60;1.00;;;;;;5086836;28;20185;-73
2024/01/13 09:31:49;;;;;;;15.97;13.13;;;3.60;1.00;;;;;;5103758;28;20204;-73
2024/01/13 09:34:15;;;;;;;15.50;12.13;;;3.70;1.00;;;;;;5105097;28;20166;-73
2024/01/13 09:36:42;;;;;;;22.67;12.57;;;3.60;1.00;;;;;;5106906;28;20193;-73
2024/01/13 09:39:11;;;;;;;16.20;11.73;;;3.60;1.00;;;;;;5106938;28;20173;-72
2024/01/13 09:41:37;;;;;;;13.30;11.83;;;3.70;1.00;;;;;;5107538;28;20176;-73
2024/01/13 09:44:07;;;;;;;14.73;11.47;;;3.70;1.00;;;;;;5103583;28;20202;-73
2024/01/13 09:46:35;;;;;;;16.73;13.37;;;3.60;1.00;;;;;;5087743;28;20197;-73
2024/01/13 09:49:05;;;;;;;15.40;12.50;;;3.70;1.00;;;;;;5086839;28;20170;-73
2024/01/13 09:51:31;;;;;;;14.43;12.07;;;3.70;1.00;;;;;;5096565;28;20201;-73
2024/01/13 09:54:06;;;;;;;15.73;12.27;;;3.60;1.00;;;;;;5104715;28;20277;-73
2024/01/13 09:56:34;;;;;;;13.50;12.13;;;3.60;1.00;;;;;;5086842;28;20194;-73
2024/01/13 09:59:00;;;;;;;13.93;11.80;;;3.80;1.00;;;;;;5085572;28;20177;-73
2024/01/13 10:01:27;;;;;;;16.83;12.47;;;3.70;1.00;;;;;;5097188;28;20170;-72
2024/01/13 10:03:53;;;;;;;12.17;10.97;;;3.60;1.00;;;;;;5095504;28;20177;-72
2024/01/13 10:06:19;;;;;;;13.07;10.50;;;3.70;1.00;;;;;;5095092;28;20298;-72
2024/01/13 10:08:46;;;;;;;14.00;11.30;;;3.60;1.00;;;;;;5094253;28;20668;-72
2024/01/13 10:11:11;;;;;;;16.37;11.03;;;3.70;1.00;;;;;;5094418;28;20201;-72
2024/01/13 10:13:37;;;;;;;12.80;10.93;;;3.60;1.00;;;;;;5092686;28;20188;-72
2024/01/13 10:16:02;;;;;;;11.50;10.30;;;3.60;1.00;;;;;;5094486;28;20529;-71
2024/01/13 10:18:31;;;;;;;10.83;9.77;;;3.70;1.00;;;;;;5094303;28;20166;-71
2024/01/13 10:20:57;;;;;;;11.20;9.97;;;3.70;1.00;;;;;;5094245;28;20170;-72
2024/01/13 10:23:22;;;;;;;11.70;10.43;;;3.70;99.90;;;;;;5094215;28;20170;-72
2024/01/13 10:25:49;;;;;;;11.33;10.17;;;3.60;1.00;;;;;;5083651;28;20214;-72
2024/01/13 10:28:15;;;;;;;11.70;10.03;;;3.70;1.00;;;;;;5073780;28;20174;-72
2024/01/13 10:30:41;;;;;;;12.30;10.30;;;3.60;1.00;;;;;;5074708;28;20603;-72
2024/01/13 10:33:10;;;;;;;12.53;10.57;;;3.60;1.00;;;;;;5073732;28;20220;-72
2024/01/13 10:35:35;;;;;;;11.70;10.10;;;3.60;1.00;;;;;;5073603;28;20235;-71
2024/01/13 10:38:01;;;;;;;11.20;10.00;;;3.70;1.00;;;;;;5073861;28;20179;-72
2024/01/13 10:40:27;;;;;;;13.13;10.40;;;3.60;1.00;;;;;;5073828;28;20177;-72
2024/01/13 10:42:55;;;;;;;11.87;10.63;;;3.60;1.00;;;;;;5072983;28;20556;-71
2024/01/13 10:45:25;;;;;;;10.87;9.70;;;3.60;1.00;;;;;;5073710;28;20198;-72
2024/01/13 10:48:00;;;;;;;12.73;9.93;;;3.70;1.00;;;;;;5073303;28;20304;-72
2024/01/13 10:50:25;;;;;;;10.97;9.53;;;3.60;1.00;;;;;;5073590;28;20208;-72
2024/01/13 10:53:09;;;;;;;13.43;10.87;;;3.70;1.00;;;;;;5075677;28;20321;-72
2024/01/13 10:55:36;;;;;;;14.43;9.60;;;3.60;1.00;;;;;;5093397;28;20189;-71
2024/01/13 10:58:03;;;;;;;16.13;11.43;;;3.60;99.90;;;;;;5093449;28;20201;-72
2024/01/13 11:00:30;;;;;;;12.80;10.63;;;3.50;99.90;;;;;;5093666;28;20176;-71
2024/01/13 11:02:58;;;;;;;12.67;11.07;;;3.50;1.00;;;;;;5093792;28;20169;-72
2024/01/13 11:05:26;;;;;;;15.50;10.90;;;3.40;99.90;;;;;;5093399;28;20197;-72
2024/01/13 11:07:52;;;;;;;12.60;10.00;;;3.50;99.90;;;;;;5088244;28;20202;-71
2024/01/13 11:10:33;;;;;;;12.93;10.07;;;3.40;1.00;;;;;;5073172;28;20234;-72
2024/01/13 11:13:07;;;;;;;11.60;10.20;;;3.30;1.00;;;;;;5073467;28;20257;-72
2024/01/13 11:15:42;;;;;;;13.60;9.93;;;3.30;1.00;;;;;;5075044;28;20230;-72
2024/01/13 11:18:07;;;;;;;13.07;11.10;;;3.50;1.00;;;;;;5079692;28;20246;-72
2024/01/13 11:20:58;;;;;;;12.93;10.23;;;3.50;40.60;;;;;;5073855;28;20175;-72
2024/01/13 11:23:24;;;;;;;13.33;10.50;;;3.50;99.90;;;;;;5071661;28;20261;-71
2024/01/13 11:25:49;;;;;;;11.73;10.10;;;3.50;99.90;;;;;;5072629;28;20342;-72
2024/01/13 11:28:15;;;;;;;14.87;10.90;;;3.40;99.90;;;;;;5090182;28;20184;-72
2024/01/13 11:30:41;;;;;;;12.10;10.90;;;3.40;99.90;;;;;;5092716;28;20333;-71
2024/01/13 11:33:11;;;;;;;11.73;10.50;;;3.40;1.00;;;;;;5092685;28;20185;-71
2024/01/13 11:35:40;;;;;;;11.90;10.10;;;3.30;1.00;;;;;;5091812;28;20192;-71
2024/01/13 11:38:07;;;;;;;16.93;11.00;;;3.20;99.90;;;;;;5092385;28;20175;-72
2024/01/13 11:40:33;;;;;;;15.47;11.50;;;3.30;1.00;;;;;;5092534;28;20186;-71
2024/01/13 11:43:05;;;;;;;13.13;11.57;;;3.30;99.90;;;;;;5092044;28;20252;-71
2024/01/13 11:45:39;;;;;;;14.00;11.07;;;3.30;1.00;;;;;;5088243;28;20201;-72
2024/01/13 11:48:30;;;;;;;15.10;11.67;;;3.20;1.00;;;;;;5096745;28;20219;-73
2024/01/13 11:50:55;;;;;;;19.13;11.63;;;3.10;99.90;;;;;;5076370;28;20201;-72
2024/01/13 11:53:41;;;;;;;18.33;13.87;;;3.20;99.90;;;;;;5054058;28;20649;-73
2024/01/13 11:56:08;;;;;;;16.23;12.70;;;3.20;99.90;;;;;;5072125;28;20246;-71
2024/01/13 11:58:36;;;;;;;22.10;15.87;;;3.20;99.90;;;;;;5071830;28;20727;-72
2024/01/13 12:01:03;;;;;;;17.77;14.47;;;3.20;99.90;;;;;;5072253;28;20251;-72
2024/01/13 12:03:29;;;;;;;17.47;14.47;;;3.20;99.90;;;;;;5072048;28;20596;-72
2024/01/13 12:05:55;;;;;;;20.97;13.93;;;3.10;99.90;;;;;;5072308;28;20566;-72
2024/01/13 12:08:24;;;;;;;20.23;14.33;;;3.10;99.90;;;;;;5091982;28;20177;-72
2024/01/13 12:10:51;;;;;;;20.63;13.17;;;3.20;99.90;;;;;;5092067;28;20197;-71
2024/01/13 12:13:18;;;;;;;18.43;14.47;;;3.10;99.90;;;;;;5092054;28;20219;-72
2024/01/13 12:15:47;;;;;;;16.57;11.60;;;3.30;99.90;;;;;;5091894;28;20559;-71
2024/01/13 12:18:21;;;;;;;22.23;15.20;;;3.30;99.90;;;;;;5092146;28;20644;-72
2024/01/13 12:20:55;;;;;;;21.07;15.53;;;3.20;99.90;;;;;;5090256;28;20436;-72
2024/01/13 12:23:21;;;;;;;18.10;14.80;;;3.20;99.90;;;;;;5091832;28;20174;-71
2024/01/13 12:25:46;;;;;;;21.17;14.67;;;3.30;94.10;;;;;;5091480;28;20210;-71
2024/01/13 12:28:12;;;;;;;19.40;14.03;;;3.30;99.90;;;;;;5091738;28;20169;-71
2024/01/13 12:30:39;;;;;;;21.30;15.73;;;3.20;32.00;;;;;;5091854;28;20349;-71
2024/01/13 12:33:06;;;;;;;23.73;15.93;;;3.20;95.10;;;;;;5091722;28;20165;-72
2024/01/13 12:35:31;;;;;;;21.27;14.93;;;3.30;56.70;;;;;;5089685;28;20204;-72
2024/01/13 12:37:58;;;;;;;19.90;15.80;;;3.30;99.90;;;;;;5073147;28;20257;-71
2024/01/13 12:40:24;;;;;;;24.17;16.60;;;3.10;99.90;;;;;;5076115;28;20515;-72